Terminal Aerodrome Forecast
Issued by NWS Louisville, KY

Home | Current Version | Previous Version | Text Only | Print | Product List | Glossary On
Versions: 1 2 3 4 5 6 7 8 9 10 11 12 13 14 15 16 17 18 19 20 21 22
668
FTUS43 KLMK 292320
TAFSDF
TAF
KSDF 292320Z 3000/0106 30005KT P6SM VCSH OVC070
     FM300600 29004KT P6SM VCSH OVC023
     FM300900 VRB03KT 6SM BR VCSH OVC011
     FM301500 18006KT P6SM VCSH OVC025
     FM010000 14004KT P6SM OVC018=

USA.gov is the U.S. government's official web portal to all federal, state and local government web resources and services.